Accueil
METAR-TAF:

METAR-TAF

Aéroports :

Clark's Point, Alaska, États-Unis

latitude: 58-50-01N, longitude: 158-31-46W, altitude: 24 m

Observation

Le bulletin a été fait il y a 26 minutes, à 22:56 UTC
Vent 3 kt de sud-est
Température -17°C
Humidité 84%
Pression 1013 hPa
Visibilité: 16.1 km
Ciel clair

METAR: PFCL 222256Z AUTO 14003KT 10SM CLR M17/M19 A2992 RMK AO2 SLP125 T11671189 FZRANO TSNO

Heure: 14:22 (23:22 UTC)


TAF: absent

Observations et prévisions météorologiques de plus de 4000 aéroports (messages METAR et TAF).

Les stations disponibles sont représentées par des disques jaunes et rouges sur la carte.

Passer la souris dessus pour voir le nom de la station.

Cliquer dessus pour voir les observations et prévisions météorologiques.

Pour changer de carte: cliquez sur les boutons verts avec une croix noire pour zoomer, sur le bouton vert avec un tiret pour effectuer un zoom arrière, ou sur les flèches vertes pour les cartes adjacentes.


METAR-TAF: